sensor_id;sensor_type;location;lat;lon;timestamp;P1;durP1;ratioP1;P2;durP2;ratioP2
9200;SDS011;4635;48.686;9.008;2023-02-11T00:00:03;67.85;;;29.27;;
9200;SDS011;4635;48.686;9.008;2023-02-11T00:02:35;65.45;;;28.67;;
9200;SDS011;4635;48.686;9.008;2023-02-11T00:05:11;53.45;;;27.88;;
9200;SDS011;4635;48.686;9.008;2023-02-11T00:07:48;61.20;;;25.75;;
9200;SDS011;4635;48.686;9.008;2023-02-11T00:10:18;58.55;;;28.75;;
9200;SDS011;4635;48.686;9.008;2023-02-11T00:12:49;61.03;;;29.92;;
9200;SDS011;4635;48.686;9.008;2023-02-11T00:15:20;61.20;;;28.95;;
9200;SDS011;4635;48.686;9.008;2023-02-11T00:17:52;61.97;;;28.23;;
9200;SDS011;4635;48.686;9.008;2023-02-11T00:20:24;63.03;;;29.48;;
9200;SDS011;4635;48.686;9.008;2023-02-11T00:22:56;65.00;;;27.63;;
9200;SDS011;4635;48.686;9.008;2023-02-11T00:25:30;57.83;;;29.52;;
9200;SDS011;4635;48.686;9.008;2023-02-11T00:28:03;54.50;;;27.75;;
9200;SDS011;4635;48.686;9.008;2023-02-11T00:30:34;88.13;;;29.67;;
9200;SDS011;4635;48.686;9.008;2023-02-11T00:33:06;55.90;;;27.50;;
9200;SDS011;4635;48.686;9.008;2023-02-11T00:35:39;64.57;;;28.95;;
9200;SDS011;4635;48.686;9.008;2023-02-11T00:38:10;59.65;;;26.85;;
9200;SDS011;4635;48.686;9.008;2023-02-11T00:40:40;61.33;;;29.15;;
9200;SDS011;4635;48.686;9.008;2023-02-11T00:43:15;65.07;;;28.75;;
9200;SDS011;4635;48.686;9.008;2023-02-11T00:45:58;64.07;;;28.40;;
9200;SDS011;4635;48.686;9.008;2023-02-11T00:48:28;58.35;;;30.65;;
9200;SDS011;4635;48.686;9.008;2023-02-11T00:51:01;63.83;;;28.70;;
9200;SDS011;4635;48.686;9.008;2023-02-11T00:53:36;61.92;;;29.60;;
9200;SDS011;4635;48.686;9.008;2023-02-11T00:56:08;75.03;;;30.13;;
9200;SDS011;4635;48.686;9.008;2023-02-11T00:58:41;68.75;;;28.65;;
9200;SDS011;4635;48.686;9.008;2023-02-11T01:01:12;62.88;;;28.85;;
9200;SDS011;4635;48.686;9.008;2023-02-11T01:03:46;56.45;;;28.63;;
9200;SDS011;4635;48.686;9.008;2023-02-11T01:06:23;56.45;;;28.48;;
9200;SDS011;4635;48.686;9.008;2023-02-11T01:08:55;72.82;;;29.52;;
9200;SDS011;4635;48.686;9.008;2023-02-11T01:11:28;63.03;;;28.40;;
9200;SDS011;4635;48.686;9.008;2023-02-11T01:14:00;75.68;;;29.10;;
9200;SDS011;4635;48.686;9.008;2023-02-11T01:16:30;66.72;;;30.55;;
9200;SDS011;4635;48.686;9.008;2023-02-11T01:19:01;61.60;;;30.70;;
9200;SDS011;4635;48.686;9.008;2023-02-11T01:21:32;77.80;;;31.10;;
9200;SDS011;4635;48.686;9.008;2023-02-11T01:24:03;57.38;;;27.98;;
9200;SDS011;4635;48.686;9.008;2023-02-11T01:26:35;60.10;;;28.50;;
9200;SDS011;4635;48.686;9.008;2023-02-11T01:29:07;72.90;;;31.60;;
9200;SDS011;4635;48.686;9.008;2023-02-11T01:31:39;68.72;;;31.38;;
9200;SDS011;4635;48.686;9.008;2023-02-11T01:34:11;63.05;;;30.67;;
9200;SDS011;4635;48.686;9.008;2023-02-11T01:36:44;60.90;;;28.77;;
9200;SDS011;4635;48.686;9.008;2023-02-11T01:39:14;63.13;;;29.70;;
9200;SDS011;4635;48.686;9.008;2023-02-11T01:41:45;77.22;;;32.08;;
9200;SDS011;4635;48.686;9.008;2023-02-11T01:44:23;81.93;;;33.38;;
9200;SDS011;4635;48.686;9.008;2023-02-11T01:46:55;77.13;;;32.08;;
9200;SDS011;4635;48.686;9.008;2023-02-11T01:49:26;61.13;;;29.00;;
9200;SDS011;4635;48.686;9.008;2023-02-11T01:52:00;77.20;;;30.05;;
9200;SDS011;4635;48.686;9.008;2023-02-11T01:54:35;57.67;;;28.55;;
9200;SDS011;4635;48.686;9.008;2023-02-11T01:57:24;55.70;;;26.48;;
9200;SDS011;4635;48.686;9.008;2023-02-11T02:00:04;55.85;;;29.98;;
9200;SDS011;4635;48.686;9.008;2023-02-11T02:02:42;69.35;;;30.35;;
9200;SDS011;4635;48.686;9.008;2023-02-11T02:05:22;62.63;;;29.20;;
9200;SDS011;4635;48.686;9.008;2023-02-11T02:08:02;67.93;;;29.13;;
9200;SDS011;4635;48.686;9.008;2023-02-11T02:10:54;65.53;;;29.90;;
9200;SDS011;4635;48.686;9.008;2023-02-11T02:13:27;66.43;;;27.88;;
9200;SDS011;4635;48.686;9.008;2023-02-11T02:16:01;64.55;;;29.55;;
9200;SDS011;4635;48.686;9.008;2023-02-11T02:18:35;58.47;;;27.08;;
9200;SDS011;4635;48.686;9.008;2023-02-11T02:21:23;64.50;;;31.73;;
9200;SDS011;4635;48.686;9.008;2023-02-11T02:27:26;61.75;;;28.60;;
9200;SDS011;4635;48.686;9.008;2023-02-11T02:30:33;63.75;;;28.38;;
9200;SDS011;4635;48.686;9.008;2023-02-11T02:33:39;71.88;;;31.08;;
9200;SDS011;4635;48.686;9.008;2023-02-11T02:36:20;57.67;;;28.55;;
9200;SDS011;4635;48.686;9.008;2023-02-11T02:38:58;57.22;;;29.08;;
9200;SDS011;4635;48.686;9.008;2023-02-11T02:41:34;55.63;;;27.17;;
9200;SDS011;4635;48.686;9.008;2023-02-11T02:44:07;64.72;;;26.63;;
9200;SDS011;4635;48.686;9.008;2023-02-11T02:46:38;55.55;;;28.75;;
9200;SDS011;4635;48.686;9.008;2023-02-11T02:49:12;62.80;;;28.95;;
9200;SDS011;4635;48.686;9.008;2023-02-11T02:51:48;53.92;;;26.80;;
9200;SDS011;4635;48.686;9.008;2023-02-11T02:54:37;59.15;;;27.27;;
9200;SDS011;4635;48.686;9.008;2023-02-11T02:57:25;78.03;;;28.05;;
9200;SDS011;4635;48.686;9.008;2023-02-11T03:00:07;62.58;;;29.73;;
9200;SDS011;4635;48.686;9.008;2023-02-11T03:02:49;52.97;;;26.83;;
9200;SDS011;4635;48.686;9.008;2023-02-11T03:05:29;57.63;;;26.20;;
9200;SDS011;4635;48.686;9.008;2023-02-11T03:08:04;61.70;;;28.92;;
9200;SDS011;4635;48.686;9.008;2023-02-11T03:10:39;50.03;;;26.73;;
9200;SDS011;4635;48.686;9.008;2023-02-11T03:13:13;55.58;;;26.52;;
9200;SDS011;4635;48.686;9.008;2023-02-11T03:15:51;62.35;;;29.05;;
9200;SDS011;4635;48.686;9.008;2023-02-11T03:18:26;61.15;;;27.02;;
9200;SDS011;4635;48.686;9.008;2023-02-11T03:21:00;68.88;;;29.90;;
9200;SDS011;4635;48.686;9.008;2023-02-11T03:23:35;54.17;;;27.50;;
9200;SDS011;4635;48.686;9.008;2023-02-11T03:26:13;53.35;;;26.55;;
9200;SDS011;4635;48.686;9.008;2023-02-11T03:28:50;55.25;;;26.00;;
9200;SDS011;4635;48.686;9.008;2023-02-11T03:31:33;57.30;;;25.80;;
9200;SDS011;4635;48.686;9.008;2023-02-11T03:34:10;58.10;;;25.75;;
9200;SDS011;4635;48.686;9.008;2023-02-11T03:36:47;60.63;;;27.10;;
9200;SDS011;4635;48.686;9.008;2023-02-11T03:39:32;46.63;;;24.52;;
9200;SDS011;4635;48.686;9.008;2023-02-11T03:42:06;57.67;;;26.73;;
9200;SDS011;4635;48.686;9.008;2023-02-11T03:44:39;58.05;;;26.20;;
9200;SDS011;4635;48.686;9.008;2023-02-11T03:47:13;57.80;;;25.98;;
9200;SDS011;4635;48.686;9.008;2023-02-11T03:49:46;53.78;;;26.42;;
9200;SDS011;4635;48.686;9.008;2023-02-11T03:52:22;57.65;;;25.45;;
9200;SDS011;4635;48.686;9.008;2023-02-11T03:54:56;51.53;;;25.20;;
9200;SDS011;4635;48.686;9.008;2023-02-11T03:57:29;46.42;;;25.38;;
9200;SDS011;4635;48.686;9.008;2023-02-11T04:00:03;56.90;;;24.73;;
9200;SDS011;4635;48.686;9.008;2023-02-11T04:02:35;52.25;;;25.63;;
9200;SDS011;4635;48.686;9.008;2023-02-11T04:05:09;53.85;;;27.05;;
9200;SDS011;4635;48.686;9.008;2023-02-11T04:07:44;54.90;;;26.33;;
9200;SDS011;4635;48.686;9.008;2023-02-11T04:10:15;51.90;;;26.08;;
9200;SDS011;4635;48.686;9.008;2023-02-11T04:12:46;55.97;;;26.35;;
9200;SDS011;4635;48.686;9.008;2023-02-11T04:15:17;52.45;;;25.38;;
9200;SDS011;4635;48.686;9.008;2023-02-11T04:17:48;63.20;;;27.73;;
9200;SDS011;4635;48.686;9.008;2023-02-11T04:20:20;61.50;;;27.40;;
9200;SDS011;4635;48.686;9.008;2023-02-11T04:22:54;56.17;;;27.92;;
9200;SDS011;4635;48.686;9.008;2023-02-11T04:25:27;53.97;;;28.63;;
9200;SDS011;4635;48.686;9.008;2023-02-11T04:27:58;63.58;;;29.50;;
9200;SDS011;4635;48.686;9.008;2023-02-11T04:30:31;50.10;;;25.00;;
9200;SDS011;4635;48.686;9.008;2023-02-11T04:33:02;56.67;;;28.48;;
9200;SDS011;4635;48.686;9.008;2023-02-11T04:35:32;55.55;;;27.60;;
9200;SDS011;4635;48.686;9.008;2023-02-11T04:38:04;47.97;;;24.42;;
9200;SDS011;4635;48.686;9.008;2023-02-11T04:40:35;54.85;;;25.63;;
9200;SDS011;4635;48.686;9.008;2023-02-11T04:43:05;54.05;;;25.42;;
9200;SDS011;4635;48.686;9.008;2023-02-11T04:45:39;53.25;;;25.63;;
9200;SDS011;4635;48.686;9.008;2023-02-11T04:48:12;52.70;;;25.33;;
9200;SDS011;4635;48.686;9.008;2023-02-11T04:50:42;63.10;;;27.13;;
9200;SDS011;4635;48.686;9.008;2023-02-11T04:53:15;53.53;;;25.80;;
9200;SDS011;4635;48.686;9.008;2023-02-11T04:55:51;53.65;;;27.10;;
9200;SDS011;4635;48.686;9.008;2023-02-11T04:58:22;58.42;;;27.23;;
9200;SDS011;4635;48.686;9.008;2023-02-11T05:00:54;63.92;;;28.40;;
9200;SDS011;4635;48.686;9.008;2023-02-11T05:03:33;50.47;;;27.35;;
9200;SDS011;4635;48.686;9.008;2023-02-11T05:06:04;70.78;;;27.90;;
9200;SDS011;4635;48.686;9.008;2023-02-11T05:08:36;50.20;;;26.05;;
9200;SDS011;4635;48.686;9.008;2023-02-11T05:11:13;50.38;;;26.33;;
9200;SDS011;4635;48.686;9.008;2023-02-11T05:13:45;52.53;;;25.70;;
9200;SDS011;4635;48.686;9.008;2023-02-11T05:16:15;50.70;;;26.20;;
9200;SDS011;4635;48.686;9.008;2023-02-11T05:18:47;53.55;;;24.55;;
9200;SDS011;4635;48.686;9.008;2023-02-11T05:21:20;47.20;;;25.50;;
9200;SDS011;4635;48.686;9.008;2023-02-11T05:23:56;57.78;;;26.58;;
9200;SDS011;4635;48.686;9.008;2023-02-11T05:26:39;53.53;;;24.70;;
9200;SDS011;4635;48.686;9.008;2023-02-11T05:29:10;50.08;;;23.42;;
9200;SDS011;4635;48.686;9.008;2023-02-11T05:31:42;47.60;;;23.45;;
9200;SDS011;4635;48.686;9.008;2023-02-11T05:34:14;64.88;;;25.23;;
9200;SDS011;4635;48.686;9.008;2023-02-11T05:36:46;53.70;;;23.42;;
9200;SDS011;4635;48.686;9.008;2023-02-11T05:39:21;52.38;;;23.92;;
9200;SDS011;4635;48.686;9.008;2023-02-11T05:41:52;48.42;;;24.75;;
9200;SDS011;4635;48.686;9.008;2023-02-11T05:44:23;53.17;;;24.48;;
9200;SDS011;4635;48.686;9.008;2023-02-11T05:46:53;55.55;;;24.45;;
9200;SDS011;4635;48.686;9.008;2023-02-11T05:49:23;49.70;;;25.00;;
9200;SDS011;4635;48.686;9.008;2023-02-11T05:51:53;45.88;;;23.30;;
9200;SDS011;4635;48.686;9.008;2023-02-11T05:54:26;51.85;;;24.25;;
9200;SDS011;4635;48.686;9.008;2023-02-11T05:56:58;47.50;;;22.48;;
9200;SDS011;4635;48.686;9.008;2023-02-11T05:59:30;45.53;;;23.38;;
9200;SDS011;4635;48.686;9.008;2023-02-11T06:02:02;56.92;;;29.10;;
9200;SDS011;4635;48.686;9.008;2023-02-11T06:04:36;45.95;;;25.42;;
9200;SDS011;4635;48.686;9.008;2023-02-11T06:07:06;41.95;;;22.55;;
9200;SDS011;4635;48.686;9.008;2023-02-11T06:09:40;53.15;;;29.73;;
9200;SDS011;4635;48.686;9.008;2023-02-11T06:12:10;55.05;;;28.63;;
9200;SDS011;4635;48.686;9.008;2023-02-11T06:14:39;47.83;;;24.00;;
9200;SDS011;4635;48.686;9.008;2023-02-11T06:17:09;47.38;;;24.20;;
9200;SDS011;4635;48.686;9.008;2023-02-11T06:19:38;50.78;;;28.67;;
9200;SDS011;4635;48.686;9.008;2023-02-11T06:22:08;59.78;;;25.52;;
9200;SDS011;4635;48.686;9.008;2023-02-11T06:24:41;84.90;;;36.50;;
9200;SDS011;4635;48.686;9.008;2023-02-11T06:27:15;94.75;;;41.47;;
9200;SDS011;4635;48.686;9.008;2023-02-11T06:29:45;134.52;;;54.20;;
9200;SDS011;4635;48.686;9.008;2023-02-11T06:32:20;73.25;;;33.40;;
9200;SDS011;4635;48.686;9.008;2023-02-11T06:34:51;71.40;;;31.88;;
9200;SDS011;4635;48.686;9.008;2023-02-11T06:37:24;55.10;;;26.45;;
9200;SDS011;4635;48.686;9.008;2023-02-11T06:40:00;61.85;;;28.27;;
9200;SDS011;4635;48.686;9.008;2023-02-11T06:42:31;60.20;;;30.73;;
9200;SDS011;4635;48.686;9.008;2023-02-11T06:45:04;54.55;;;27.27;;
9200;SDS011;4635;48.686;9.008;2023-02-11T06:47:54;45.80;;;24.42;;
9200;SDS011;4635;48.686;9.008;2023-02-11T06:50:33;48.78;;;26.35;;
9200;SDS011;4635;48.686;9.008;2023-02-11T06:53:11;51.25;;;26.15;;
9200;SDS011;4635;48.686;9.008;2023-02-11T06:55:45;42.15;;;22.98;;
9200;SDS011;4635;48.686;9.008;2023-02-11T06:58:14;38.90;;;20.55;;
9200;SDS011;4635;48.686;9.008;2023-02-11T07:00:44;52.63;;;25.30;;
9200;SDS011;4635;48.686;9.008;2023-02-11T07:03:17;43.60;;;23.02;;
9200;SDS011;4635;48.686;9.008;2023-02-11T07:05:50;40.53;;;22.63;;
9200;SDS011;4635;48.686;9.008;2023-02-11T07:08:21;57.03;;;21.58;;
9200;SDS011;4635;48.686;9.008;2023-02-11T07:10:56;47.35;;;22.48;;
9200;SDS011;4635;48.686;9.008;2023-02-11T07:13:26;60.50;;;23.88;;
9200;SDS011;4635;48.686;9.008;2023-02-11T07:15:56;50.88;;;22.83;;
9200;SDS011;4635;48.686;9.008;2023-02-11T07:18:26;60.67;;;23.95;;
9200;SDS011;4635;48.686;9.008;2023-02-11T07:20:58;52.88;;;23.50;;
9200;SDS011;4635;48.686;9.008;2023-02-11T07:23:30;46.90;;;22.08;;
9200;SDS011;4635;48.686;9.008;2023-02-11T07:26:12;57.38;;;25.27;;
9200;SDS011;4635;48.686;9.008;2023-02-11T07:28:44;42.60;;;23.55;;
9200;SDS011;4635;48.686;9.008;2023-02-11T07:31:16;50.92;;;26.02;;
9200;SDS011;4635;48.686;9.008;2023-02-11T07:33:52;52.28;;;25.13;;
9200;SDS011;4635;48.686;9.008;2023-02-11T07:36:25;54.42;;;29.85;;
9200;SDS011;4635;48.686;9.008;2023-02-11T07:38:56;51.42;;;27.08;;
9200;SDS011;4635;48.686;9.008;2023-02-11T07:41:31;47.15;;;25.45;;
9200;SDS011;4635;48.686;9.008;2023-02-11T07:44:01;45.80;;;23.40;;
9200;SDS011;4635;48.686;9.008;2023-02-11T07:46:33;42.30;;;21.48;;
9200;SDS011;4635;48.686;9.008;2023-02-11T07:49:07;40.63;;;21.85;;
9200;SDS011;4635;48.686;9.008;2023-02-11T07:51:44;35.30;;;20.85;;
9200;SDS011;4635;48.686;9.008;2023-02-11T07:54:16;44.38;;;22.10;;
9200;SDS011;4635;48.686;9.008;2023-02-11T07:56:51;42.10;;;24.30;;
9200;SDS011;4635;48.686;9.008;2023-02-11T07:59:26;42.40;;;23.03;;
9200;SDS011;4635;48.686;9.008;2023-02-11T08:02:01;36.40;;;20.70;;
9200;SDS011;4635;48.686;9.008;2023-02-11T08:04:32;36.10;;;19.35;;
9200;SDS011;4635;48.686;9.008;2023-02-11T08:07:02;38.63;;;20.47;;
9200;SDS011;4635;48.686;9.008;2023-02-11T08:09:34;39.07;;;20.70;;
9200;SDS011;4635;48.686;9.008;2023-02-11T08:12:10;39.60;;;20.90;;
9200;SDS011;4635;48.686;9.008;2023-02-11T08:14:39;43.27;;;19.67;;
9200;SDS011;4635;48.686;9.008;2023-02-11T08:17:13;36.40;;;21.80;;
9200;SDS011;4635;48.686;9.008;2023-02-11T08:19:43;37.47;;;20.00;;
9200;SDS011;4635;48.686;9.008;2023-02-11T08:22:13;36.50;;;20.90;;
9200;SDS011;4635;48.686;9.008;2023-02-11T08:24:49;40.37;;;21.10;;
9200;SDS011;4635;48.686;9.008;2023-02-11T08:27:20;39.23;;;20.10;;
9200;SDS011;4635;48.686;9.008;2023-02-11T08:29:57;35.20;;;21.20;;
9200;SDS011;4635;48.686;9.008;2023-02-11T08:32:27;40.53;;;20.80;;
9200;SDS011;4635;48.686;9.008;2023-02-11T08:34:59;40.93;;;19.50;;
9200;SDS011;4635;48.686;9.008;2023-02-11T08:37:29;37.50;;;20.30;;
9200;SDS011;4635;48.686;9.008;2023-02-11T08:40:05;37.60;;;20.03;;
9200;SDS011;4635;48.686;9.008;2023-02-11T08:42:42;46.53;;;19.70;;
9200;SDS011;4635;48.686;9.008;2023-02-11T08:45:16;34.17;;;18.43;;
9200;SDS011;4635;48.686;9.008;2023-02-11T08:47:45;49.10;;;21.87;;
9200;SDS011;4635;48.686;9.008;2023-02-11T08:50:18;44.00;;;19.40;;
9200;SDS011;4635;48.686;9.008;2023-02-11T08:52:55;38.57;;;20.17;;
9200;SDS011;4635;48.686;9.008;2023-02-11T08:55:41;39.27;;;18.70;;
9200;SDS011;4635;48.686;9.008;2023-02-11T08:58:36;42.77;;;20.40;;
9200;SDS011;4635;48.686;9.008;2023-02-11T09:01:13;42.10;;;21.20;;
9200;SDS011;4635;48.686;9.008;2023-02-11T09:03:46;49.20;;;20.80;;
9200;SDS011;4635;48.686;9.008;2023-02-11T09:06:16;47.43;;;20.80;;
9200;SDS011;4635;48.686;9.008;2023-02-11T09:08:48;51.67;;;20.60;;
9200;SDS011;4635;48.686;9.008;2023-02-11T09:11:25;45.90;;;20.20;;
9200;SDS011;4635;48.686;9.008;2023-02-11T09:14:01;34.33;;;18.57;;
9200;SDS011;4635;48.686;9.008;2023-02-11T09:16:36;34.30;;;18.73;;
9200;SDS011;4635;48.686;9.008;2023-02-11T09:20:30;40.17;;;17.90;;
9200;SDS011;4635;48.686;9.008;2023-02-11T09:22:52;31.73;;;18.20;;
9200;SDS011;4635;48.686;9.008;2023-02-11T09:25:25;30.57;;;17.77;;
9200;SDS011;4635;48.686;9.008;2023-02-11T09:27:58;48.70;;;19.03;;
9200;SDS011;4635;48.686;9.008;2023-02-11T09:30:43;37.50;;;17.70;;
9200;SDS011;4635;48.686;9.008;2023-02-11T09:33:19;34.20;;;17.93;;
9200;SDS011;4635;48.686;9.008;2023-02-11T09:35:50;38.43;;;18.07;;
9200;SDS011;4635;48.686;9.008;2023-02-11T09:38:21;39.07;;;18.77;;
9200;SDS011;4635;48.686;9.008;2023-02-11T09:40:56;35.47;;;19.00;;
9200;SDS011;4635;48.686;9.008;2023-02-11T09:43:35;36.73;;;18.27;;
9200;SDS011;4635;48.686;9.008;2023-02-11T09:49:06;35.03;;;19.03;;
9200;SDS011;4635;48.686;9.008;2023-02-11T09:51:45;29.33;;;17.10;;
9200;SDS011;4635;48.686;9.008;2023-02-11T09:54:27;32.50;;;18.63;;
9200;SDS011;4635;48.686;9.008;2023-02-11T09:57:07;23.37;;;14.97;;
9200;SDS011;4635;48.686;9.008;2023-02-11T09:59:37;31.30;;;15.30;;
9200;SDS011;4635;48.686;9.008;2023-02-11T10:08:10;28.43;;;14.50;;
9200;SDS011;4635;48.686;9.008;2023-02-11T10:10:50;25.57;;;13.70;;
9200;SDS011;4635;48.686;9.008;2023-02-11T10:13:47;27.53;;;13.40;;
9200;SDS011;4635;48.686;9.008;2023-02-11T10:16:34;54.23;;;14.37;;
9200;SDS011;4635;48.686;9.008;2023-02-11T10:22:14;27.07;;;11.57;;
9200;SDS011;4635;48.686;9.008;2023-02-11T10:25:10;21.33;;;12.67;;
9200;SDS011;4635;48.686;9.008;2023-02-11T10:27:58;23.37;;;12.80;;
9200;SDS011;4635;48.686;9.008;2023-02-11T10:30:41;27.63;;;13.47;;
9200;SDS011;4635;48.686;9.008;2023-02-11T10:33:35;22.90;;;12.53;;
9200;SDS011;4635;48.686;9.008;2023-02-11T10:39:32;19.37;;;12.07;;
9200;SDS011;4635;48.686;9.008;2023-02-11T10:42:18;17.30;;;10.63;;
9200;SDS011;4635;48.686;9.008;2023-02-11T10:44:53;25.03;;;11.33;;
9200;SDS011;4635;48.686;9.008;2023-02-11T10:47:40;23.43;;;12.97;;
9200;SDS011;4635;48.686;9.008;2023-02-11T10:50:19;19.50;;;11.27;;
9200;SDS011;4635;48.686;9.008;2023-02-11T10:55:56;20.90;;;12.43;;
9200;SDS011;4635;48.686;9.008;2023-02-11T10:58:35;20.23;;;13.27;;
9200;SDS011;4635;48.686;9.008;2023-02-11T11:01:38;22.73;;;13.37;;
9200;SDS011;4635;48.686;9.008;2023-02-11T11:04:26;20.70;;;13.17;;
9200;SDS011;4635;48.686;9.008;2023-02-11T11:07:15;22.37;;;12.60;;
9200;SDS011;4635;48.686;9.008;2023-02-11T11:09:52;18.70;;;12.43;;
9200;SDS011;4635;48.686;9.008;2023-02-11T11:12:29;20.67;;;13.20;;
9200;SDS011;4635;48.686;9.008;2023-02-11T11:15:13;22.90;;;12.97;;
9200;SDS011;4635;48.686;9.008;2023-02-11T11:17:47;17.30;;;12.70;;
9200;SDS011;4635;48.686;9.008;2023-02-11T11:20:24;21.00;;;11.80;;
9200;SDS011;4635;48.686;9.008;2023-02-11T11:23:06;21.37;;;12.97;;
9200;SDS011;4635;48.686;9.008;2023-02-11T11:25:57;25.43;;;12.30;;
9200;SDS011;4635;48.686;9.008;2023-02-11T11:28:36;19.57;;;11.37;;
9200;SDS011;4635;48.686;9.008;2023-02-11T11:31:17;21.67;;;12.90;;
9200;SDS011;4635;48.686;9.008;2023-02-11T11:34:02;15.20;;;9.60;;
9200;SDS011;4635;48.686;9.008;2023-02-11T11:36:48;14.57;;;9.67;;
9200;SDS011;4635;48.686;9.008;2023-02-11T11:39:27;18.33;;;9.03;;
9200;SDS011;4635;48.686;9.008;2023-02-11T11:42:24;14.23;;;9.60;;
9200;SDS011;4635;48.686;9.008;2023-02-11T11:44:57;15.83;;;9.97;;
9200;SDS011;4635;48.686;9.008;2023-02-11T11:48:00;15.90;;;10.13;;
9200;SDS011;4635;48.686;9.008;2023-02-11T11:50:53;13.90;;;9.53;;
9200;SDS011;4635;48.686;9.008;2023-02-11T11:53:36;13.13;;;9.37;;
9200;SDS011;4635;48.686;9.008;2023-02-11T11:56:33;17.80;;;11.10;;
9200;SDS011;4635;48.686;9.008;2023-02-11T12:05:17;22.77;;;8.80;;
9200;SDS011;4635;48.686;9.008;2023-02-11T12:11:38;15.20;;;8.80;;
9200;SDS011;4635;48.686;9.008;2023-02-11T12:14:31;17.20;;;7.20;;
9200;SDS011;4635;48.686;9.008;2023-02-11T12:20:53;8.80;;;6.60;;
9200;SDS011;4635;48.686;9.008;2023-02-11T12:24:05;8.33;;;5.10;;
9200;SDS011;4635;48.686;9.008;2023-02-11T12:26:58;10.40;;;5.57;;
9200;SDS011;4635;48.686;9.008;2023-02-11T12:30:03;11.10;;;5.50;;
9200;SDS011;4635;48.686;9.008;2023-02-11T12:33:19;8.63;;;5.80;;
9200;SDS011;4635;48.686;9.008;2023-02-11T12:36:21;9.10;;;5.77;;
9200;SDS011;4635;48.686;9.008;2023-02-11T12:39:23;10.10;;;5.90;;
9200;SDS011;4635;48.686;9.008;2023-02-11T12:42:38;8.07;;;5.43;;
9200;SDS011;4635;48.686;9.008;2023-02-11T12:45:55;16.40;;;7.50;;
9200;SDS011;4635;48.686;9.008;2023-02-11T12:52:18;11.03;;;7.47;;
9200;SDS011;4635;48.686;9.008;2023-02-11T12:55:09;9.10;;;7.40;;
9200;SDS011;4635;48.686;9.008;2023-02-11T12:58:03;15.83;;;9.30;;
9200;SDS011;4635;48.686;9.008;2023-02-11T13:00:58;12.13;;;7.33;;
9200;SDS011;4635;48.686;9.008;2023-02-11T13:03:36;17.00;;;9.17;;
9200;SDS011;4635;48.686;9.008;2023-02-11T13:06:30;10.00;;;7.60;;
9200;SDS011;4635;48.686;9.008;2023-02-11T13:09:37;16.67;;;7.50;;
9200;SDS011;4635;48.686;9.008;2023-02-11T13:12:50;14.67;;;7.83;;
9200;SDS011;4635;48.686;9.008;2023-02-11T13:15:36;17.43;;;9.70;;
9200;SDS011;4635;48.686;9.008;2023-02-11T13:18:38;17.63;;;11.80;;
9200;SDS011;4635;48.686;9.008;2023-02-11T13:28:08;8.70;;;5.70;;
9200;SDS011;4635;48.686;9.008;2023-02-11T13:31:02;14.43;;;5.87;;
9200;SDS011;4635;48.686;9.008;2023-02-11T13:40:30;10.87;;;5.57;;
9200;SDS011;4635;48.686;9.008;2023-02-11T13:43:18;8.80;;;6.40;;
9200;SDS011;4635;48.686;9.008;2023-02-11T13:45:56;7.00;;;5.53;;
9200;SDS011;4635;48.686;9.008;2023-02-11T13:48:30;13.43;;;7.83;;
9200;SDS011;4635;48.686;9.008;2023-02-11T13:51:32;12.87;;;5.90;;
9200;SDS011;4635;48.686;9.008;2023-02-11T13:54:17;12.97;;;6.70;;
9200;SDS011;4635;48.686;9.008;2023-02-11T14:03:38;12.23;;;7.37;;
9200;SDS011;4635;48.686;9.008;2023-02-11T14:13:29;16.83;;;8.77;;
9200;SDS011;4635;48.686;9.008;2023-02-11T14:16:06;20.90;;;8.60;;
9200;SDS011;4635;48.686;9.008;2023-02-11T14:18:58;14.13;;;8.50;;
9200;SDS011;4635;48.686;9.008;2023-02-11T14:21:33;16.93;;;9.60;;
9200;SDS011;4635;48.686;9.008;2023-02-11T14:30:37;16.97;;;10.00;;
9200;SDS011;4635;48.686;9.008;2023-02-11T14:36:42;25.10;;;10.00;;
9200;SDS011;4635;48.686;9.008;2023-02-11T14:39:40;19.17;;;11.50;;
9200;SDS011;4635;48.686;9.008;2023-02-11T14:42:27;23.80;;;11.10;;
9200;SDS011;4635;48.686;9.008;2023-02-11T14:45:23;23.30;;;10.00;;
9200;SDS011;4635;48.686;9.008;2023-02-11T14:51:35;20.03;;;11.90;;
9200;SDS011;4635;48.686;9.008;2023-02-11T14:54:18;22.30;;;12.50;;
9200;SDS011;4635;48.686;9.008;2023-02-11T14:57:12;21.80;;;12.57;;
9200;SDS011;4635;48.686;9.008;2023-02-11T15:00:13;22.00;;;12.20;;
9200;SDS011;4635;48.686;9.008;2023-02-11T15:02:50;18.70;;;12.40;;
9200;SDS011;4635;48.686;9.008;2023-02-11T15:05:36;24.00;;;12.73;;
9200;SDS011;4635;48.686;9.008;2023-02-11T15:11:21;20.77;;;13.03;;
9200;SDS011;4635;48.686;9.008;2023-02-11T15:14:06;20.17;;;12.90;;
9200;SDS011;4635;48.686;9.008;2023-02-11T15:16:41;21.43;;;12.80;;
9200;SDS011;4635;48.686;9.008;2023-02-11T15:19:18;17.77;;;11.60;;
9200;SDS011;4635;48.686;9.008;2023-02-11T15:22:01;23.77;;;10.73;;
9200;SDS011;4635;48.686;9.008;2023-02-11T15:28:14;18.47;;;11.60;;
9200;SDS011;4635;48.686;9.008;2023-02-11T15:30:57;21.67;;;12.50;;
9200;SDS011;4635;48.686;9.008;2023-02-11T15:33:34;22.83;;;11.73;;
9200;SDS011;4635;48.686;9.008;2023-02-11T15:36:18;23.00;;;10.37;;
9200;SDS011;4635;48.686;9.008;2023-02-11T15:39:15;15.97;;;10.50;;
9200;SDS011;4635;48.686;9.008;2023-02-11T15:45:09;23.53;;;11.97;;
9200;SDS011;4635;48.686;9.008;2023-02-11T15:48:06;63.93;;;31.90;;
9200;SDS011;4635;48.686;9.008;2023-02-11T15:50:57;20.40;;;10.80;;
9200;SDS011;4635;48.686;9.008;2023-02-11T15:53:35;20.73;;;11.47;;
9200;SDS011;4635;48.686;9.008;2023-02-11T15:56:17;18.53;;;12.50;;
9200;SDS011;4635;48.686;9.008;2023-02-11T16:05:23;24.47;;;14.20;;
9200;SDS011;4635;48.686;9.008;2023-02-11T16:08:16;26.83;;;12.27;;
9200;SDS011;4635;48.686;9.008;2023-02-11T16:10:55;28.83;;;15.23;;
9200;SDS011;4635;48.686;9.008;2023-02-11T16:13:28;27.50;;;13.17;;
9200;SDS011;4635;48.686;9.008;2023-02-11T16:15:59;18.73;;;11.30;;
9200;SDS011;4635;48.686;9.008;2023-02-11T16:18:51;21.93;;;13.10;;
9200;SDS011;4635;48.686;9.008;2023-02-11T16:21:28;23.10;;;13.97;;
9200;SDS011;4635;48.686;9.008;2023-02-11T16:24:04;24.03;;;14.63;;
9200;SDS011;4635;48.686;9.008;2023-02-11T16:26:58;26.70;;;12.57;;
9200;SDS011;4635;48.686;9.008;2023-02-11T16:29:34;29.73;;;15.27;;
9200;SDS011;4635;48.686;9.008;2023-02-11T16:32:15;26.53;;;14.87;;
9200;SDS011;4635;48.686;9.008;2023-02-11T16:35:00;24.33;;;14.53;;
9200;SDS011;4635;48.686;9.008;2023-02-11T16:37:33;25.53;;;15.27;;
9200;SDS011;4635;48.686;9.008;2023-02-11T16:42:50;23.63;;;15.07;;
9200;SDS011;4635;48.686;9.008;2023-02-11T16:45:22;37.27;;;17.47;;
9200;SDS011;4635;48.686;9.008;2023-02-11T16:48:05;28.20;;;17.00;;
9200;SDS011;4635;48.686;9.008;2023-02-11T16:50:53;35.57;;;17.57;;
9200;SDS011;4635;48.686;9.008;2023-02-11T16:53:25;35.30;;;17.40;;
9200;SDS011;4635;48.686;9.008;2023-02-11T16:55:57;33.60;;;18.50;;
9200;SDS011;4635;48.686;9.008;2023-02-11T16:58:35;28.80;;;17.03;;
9200;SDS011;4635;48.686;9.008;2023-02-11T17:01:11;34.67;;;18.37;;
9200;SDS011;4635;48.686;9.008;2023-02-11T17:04:53;30.87;;;17.60;;
9200;SDS011;4635;48.686;9.008;2023-02-11T17:07:47;31.23;;;17.93;;
9200;SDS011;4635;48.686;9.008;2023-02-11T17:10:23;25.10;;;17.00;;
9200;SDS011;4635;48.686;9.008;2023-02-11T17:13:01;35.07;;;17.90;;
9200;SDS011;4635;48.686;9.008;2023-02-11T17:15:35;34.17;;;18.20;;
9200;SDS011;4635;48.686;9.008;2023-02-11T17:18:08;30.57;;;18.57;;
9200;SDS011;4635;48.686;9.008;2023-02-11T17:20:45;33.70;;;19.33;;
9200;SDS011;4635;48.686;9.008;2023-02-11T17:23:20;33.37;;;20.30;;
9200;SDS011;4635;48.686;9.008;2023-02-11T17:25:55;31.47;;;20.13;;
9200;SDS011;4635;48.686;9.008;2023-02-11T17:28:26;36.30;;;20.33;;
9200;SDS011;4635;48.686;9.008;2023-02-11T17:31:07;36.87;;;21.07;;
9200;SDS011;4635;48.686;9.008;2023-02-11T17:33:44;39.33;;;21.10;;
9200;SDS011;4635;48.686;9.008;2023-02-11T17:36:19;34.33;;;20.47;;